Time;durP1;ratioP1;P1;durP2;ratioP2;P2;SDS_P1;SDS_P2;PMS_P1;PMS_P2;Temp;Humidity;BMP_temperature;BMP_pressure;BME280_temperature;BME280_humidity;BME280_pressure;Samples;Min_cycle;Max_cycle;Signal;HPM_P1;HPM_P2
2022/11/16 02:53:03;;;;;;;15.55;8.55;;;10.30;99.90;;;;;;6126609;23;20021;-89
2022/11/16 02:56:03;;;;;;;18.88;9.80;;;9.70;99.90;;;;;;6152695;23;20424;-89
2022/11/16 02:58:49;;;;;;;19.58;9.75;;;10.20;99.90;;;;;;6126672;23;20497;-89
2022/11/16 03:01:53;;;;;;;18.05;9.63;;;10.10;99.90;;;;;;6127386;23;20013;-89
2022/11/16 03:04:52;;;;;;;17.20;9.75;;;11.40;99.90;;;;;;6040295;23;20015;-89
2022/11/16 03:13:48;;;;;;;17.83;9.77;;;10.20;99.90;;;;;;6151741;23;20021;-89
2022/11/16 03:16:51;;;;;;;19.38;9.73;;;10.30;99.90;;;;;;6144640;23;20439;-89
2022/11/16 03:19:58;;;;;;;18.85;9.88;;;9.60;99.90;;;;;;6247190;22;20081;-89
2022/11/16 03:23:03;;;;;;;18.23;9.98;;;9.90;99.90;;;;;;6251529;22;20023;-89
2022/11/16 03:32:57;;;;;;;19.30;10.48;;;10.50;99.90;;;;;;6100677;23;20065;-90
2022/11/16 03:38:40;;;;;;;19.92;10.30;;;9.30;99.90;;;;;;6305692;22;20030;-89
2022/11/16 03:41:08;;;;;;;19.55;11.18;;;9.30;99.90;;;;;;6272407;22;20024;-90
2022/11/16 03:44:07;;;;;;;18.15;10.32;;;11.30;99.90;;;;;;6276882;22;20077;-90
2022/11/16 03:46:44;;;;;;;20.73;11.02;;;10.70;99.90;;;;;;6276077;22;20023;-90
2022/11/16 03:49:10;;;;;;;21.70;11.93;;;10.40;99.90;;;;;;6274839;22;20012;-90
2022/11/16 03:51:51;;;;;;;19.60;11.60;;;10.40;99.90;;;;;;6276163;22;20062;-90
2022/11/16 03:54:26;;;;;;;20.70;11.38;;;9.40;99.90;;;;;;6274340;22;20015;-90
2022/11/16 03:57:00;;;;;;;19.67;12.00;;;10.00;99.90;;;;;;6277104;22;20451;-89
2022/11/16 03:59:32;;;;;;;21.08;11.68;;;11.70;99.90;;;;;;6277262;22;20061;-89
2022/11/16 04:02:10;;;;;;;21.67;11.45;;;11.50;99.90;;;;;;6289692;22;20016;-90
2022/11/16 04:29:54;;;;;;;25.83;13.63;;;10.10;99.90;;;;;;6276429;22;20020;-90
2022/11/16 04:39:16;;;;;;;25.67;13.85;;;10.20;99.90;;;;;;6286655;22;20047;-90
2022/11/16 04:50:55;;;;;;;23.88;13.02;;;10.10;99.90;;;;;;6300324;22;20107;-90
2022/11/16 04:53:27;;;;;;;27.85;14.18;;;10.10;99.90;;;;;;6274602;22;20340;-90
2022/11/16 04:56:03;;;;;;;26.35;14.02;;;9.30;99.90;;;;;;6275210;22;20016;-91
2022/11/16 04:58:43;;;;;;;25.02;13.23;;;10.00;99.90;;;;;;6274253;22;20016;-90
2022/11/16 05:02:06;;;;;;;23.98;13.60;;;11.10;99.90;;;;;;6275090;22;20019;-90
2022/11/16 05:06:54;;;;;;;26.10;14.32;;;10.00;99.90;;;;;;6243604;23;20016;-90
2022/11/16 05:09:20;;;;;;;28.58;14.52;;;9.50;99.90;;;;;;6218369;23;20071;-90
2022/11/16 05:11:54;;;;;;;28.58;14.27;;;9.30;99.90;;;;;;6223360;23;20020;-90
2022/11/16 05:14:25;;;;;;;26.73;14.75;;;9.70;99.90;;;;;;6228026;23;20016;-90
2022/11/16 05:17:07;;;;;;;27.35;14.95;;;9.80;99.90;;;;;;6253750;22;20043;-90
2022/11/16 05:26:33;;;;;;;29.95;15.90;;;10.00;99.90;;;;;;6276782;22;20023;-90
2022/11/16 05:29:05;;;;;;;25.88;14.88;;;9.90;99.90;;;;;;6280844;22;20019;-90
2022/11/16 05:31:46;;;;;;;30.43;15.47;;;9.90;99.90;;;;;;6226102;22;20059;-91
2022/11/16 05:38:40;;;;;;;30.77;16.15;;;9.10;99.90;;;;;;6131074;23;20026;-90
2022/11/16 05:41:09;;;;;;;29.75;15.98;;;9.90;99.90;;;;;;6245535;23;20024;-90
2022/11/16 05:43:54;;;;;;;27.45;16.27;;;9.80;99.90;;;;;;6246411;23;20088;-90
2022/11/16 05:46:35;;;;;;;33.67;17.30;;;8.70;99.90;;;;;;6223272;23;20027;-90
2022/11/16 05:49:11;;;;;;;31.15;16.75;;;9.50;99.90;;;;;;6261574;22;20015;-90
2022/11/16 05:51:54;;;;;;;30.05;16.13;;;10.10;99.90;;;;;;6220042;23;20146;-90
2022/11/16 05:54:30;;;;;;;34.97;17.50;;;10.20;99.90;;;;;;6221581;23;20447;-91
2022/11/16 05:57:07;;;;;;;34.97;17.73;;;11.00;99.90;;;;;;6246509;23;20016;-90
2022/11/16 05:59:43;;;;;;;36.83;17.90;;;10.60;99.90;;;;;;6218389;23;20016;-90
2022/11/16 06:02:23;;;;;;;35.17;18.30;;;8.60;99.90;;;;;;6245188;23;20016;-90
2022/11/16 06:04:58;;;;;;;30.13;17.92;;;9.70;99.90;;;;;;6246286;23;20055;-90
2022/11/16 06:07:55;;;;;;;33.80;18.08;;;9.90;99.90;;;;;;6218389;23;20016;-90
2022/11/16 06:10:36;;;;;;;33.28;18.08;;;9.90;99.90;;;;;;6098693;23;20022;-90
2022/11/16 06:13:07;;;;;;;36.72;18.58;;;9.70;99.90;;;;;;6123073;23;20076;-90
2022/11/16 06:15:58;;;;;;;35.35;19.42;;;11.10;99.90;;;;;;6097575;23;20018;-91
2022/11/16 06:18:37;;;;;;;37.38;19.52;;;9.40;99.90;;;;;;6065068;23;20075;-91
2022/11/16 06:21:11;;;;;;;40.53;20.35;;;10.80;99.90;;;;;;6041250;23;20015;-91
2022/11/16 06:23:39;;;;;;;37.10;20.60;;;11.30;99.90;;;;;;6138818;22;20015;-90
2022/11/16 06:26:13;;;;;;;37.58;21.00;;;10.00;99.90;;;;;;6303392;22;20016;-90
2022/11/16 06:28:42;;;;;;;41.92;21.05;;;9.10;99.90;;;;;;6281442;22;20343;-91
2022/11/16 06:31:19;;;;;;;38.45;20.95;;;10.00;99.90;;;;;;6279270;22;20019;-91
2022/11/16 06:34:03;;;;;;;39.90;20.40;;;10.00;99.90;;;;;;6276091;22;20090;-91
2022/11/16 06:40:18;;;;;;;35.55;20.33;;;9.90;99.90;;;;;;6303183;22;20023;-91
2022/11/16 06:42:58;;;;;;;37.42;20.30;;;9.90;99.90;;;;;;6305965;22;20038;-90
2022/11/16 06:45:27;;;;;;;45.58;20.77;;;11.10;99.90;;;;;;6279132;22;20019;-91
2022/11/16 06:47:52;;;;;;;33.92;19.42;;;9.30;99.90;;;;;;6280310;22;20015;-91
2022/11/16 06:50:23;;;;;;;41.00;20.15;;;9.00;99.90;;;;;;6277915;22;20325;-91
2022/11/16 06:53:33;;;;;;;37.72;20.10;;;10.40;99.90;;;;;;6299726;22;20049;-91
2022/11/16 06:56:23;;;;;;;45.95;21.15;;;9.10;99.90;;;;;;6279086;22;20015;-91
2022/11/16 07:05:24;;;;;;;36.53;19.25;;;10.40;99.90;;;;;;6098201;23;20101;-88
2022/11/16 07:08:17;;;;;;;37.45;19.25;;;10.10;99.90;;;;;;6126519;23;20026;-90
2022/11/16 07:10:49;;;;;;;38.90;20.10;;;11.60;99.90;;;;;;6106424;23;20020;-88
2022/11/16 07:13:15;;;;;;;33.40;18.77;;;10.00;99.90;;;;;;6099137;23;20022;-88
2022/11/16 07:15:41;;;;;;;46.28;20.83;;;10.80;99.90;;;;;;6124403;23;20026;-87
2022/11/16 07:18:11;;;;;;;37.53;19.70;;;10.20;99.90;;;;;;6099208;23;20018;-88
2022/11/16 07:23:51;;;;;;;37.75;19.70;;;11.20;99.90;;;;;;6009631;23;20039;-89
2022/11/16 07:29:07;;;;;;;39.30;19.95;;;10.00;99.90;;;;;;6281196;22;20110;-90
2022/11/16 07:32:33;;;;;;;40.38;20.33;;;10.00;99.90;;;;;;6277874;22;20149;-88
2022/11/16 07:35:48;;;;;;;39.45;19.55;;;10.10;99.90;;;;;;6273587;22;20016;-88
2022/11/16 07:39:26;;;;;;;38.17;20.42;;;10.00;99.90;;;;;;6282250;22;20024;-88
2022/11/16 07:42:17;;;;;;;45.13;21.30;;;9.70;99.90;;;;;;6275562;22;20535;-90
2022/11/16 07:44:51;;;;;;;46.05;21.98;;;9.90;99.90;;;;;;6277888;22;20019;-89
2022/11/16 07:47:36;;;;;;;37.53;20.77;;;9.30;99.90;;;;;;6275232;22;20046;-88
2022/11/16 07:50:21;;;;;;;40.72;20.90;;;10.10;99.90;;;;;;6249590;22;20033;-87
2022/11/16 07:53:15;;;;;;;50.15;21.95;;;10.10;99.90;;;;;;6272361;22;20347;-88
2022/11/16 07:55:41;;;;;;;;;;;10.10;99.90;;;;;;6250663;22;20339;-88
2022/11/16 07:58:07;;;;;;;41.33;20.88;;;9.50;99.90;;;;;;6276880;22;19923;-88
2022/11/16 08:00:32;;;;;;;44.25;21.10;;;9.00;99.90;;;;;;6262052;22;20020;-87
2022/11/16 08:02:58;;;;;;;55.55;22.13;;;9.20;99.90;;;;;;6275911;22;20453;-88
2022/11/16 08:05:26;;;;;;;43.20;20.85;;;10.80;99.90;;;;;;6275039;22;20344;-88
2022/11/16 08:08:01;;;;;;;42.70;20.05;;;10.00;99.90;;;;;;6274863;22;20065;-89
2022/11/16 08:10:30;;;;;;;46.03;21.73;;;11.40;99.90;;;;;;6275865;22;20055;-86
2022/11/16 08:12:56;;;;;;;42.13;20.60;;;11.30;99.90;;;;;;6289318;22;20015;-88
2022/11/16 08:15:28;;;;;;;43.53;20.70;;;11.50;99.90;;;;;;6278558;22;20016;-90
2022/11/16 08:18:09;;;;;;;43.72;21.17;;;11.50;99.90;;;;;;6276629;22;20026;-88
2022/11/16 08:20:46;;;;;;;46.00;21.23;;;10.50;99.90;;;;;;6275349;22;20095;-87
2022/11/16 08:26:56;;;;;;;45.88;20.90;;;10.20;99.90;;;;;;6280119;22;20026;-88
2022/11/16 08:29:25;;;;;;;41.42;21.00;;;10.90;99.90;;;;;;6277567;22;20336;-88
2022/11/16 08:31:57;;;;;;;54.13;23.02;;;10.60;99.90;;;;;;6308388;22;20015;-88
2022/11/16 08:34:22;;;;;;;44.88;21.20;;;11.60;99.90;;;;;;6308333;22;20099;-88
2022/11/16 08:36:51;;;;;;;46.63;20.88;;;10.20;99.90;;;;;;6279625;22;20051;-88
2022/11/16 08:39:20;;;;;;;39.38;19.77;;;10.10;99.90;;;;;;6279490;22;20019;-87
2022/11/16 08:41:52;;;;;;;44.20;20.77;;;10.60;99.90;;;;;;6280784;22;20096;-88
2022/11/16 08:44:27;;;;;;;56.40;22.60;;;9.70;99.90;;;;;;6306645;22;20019;-89
2022/11/16 08:46:55;;;;;;;42.90;20.80;;;10.70;99.90;;;;;;6280526;22;20035;-89
2022/11/16 08:49:27;;;;;;;47.92;21.27;;;11.30;99.90;;;;;;6291617;22;20444;-89
2022/11/16 08:51:53;;;;;;;41.08;20.58;;;10.60;99.90;;;;;;6282206;22;20015;-88
2022/11/16 08:54:19;;;;;;;47.17;21.23;;;11.80;99.90;;;;;;6278499;22;20026;-89
2022/11/16 08:56:47;;;;;;;46.67;21.20;;;10.40;99.90;;;;;;6283220;22;20345;-89
2022/11/16 08:59:13;;;;;;;42.95;20.73;;;11.10;99.90;;;;;;6308459;22;20038;-89
2022/11/16 09:01:44;;;;;;;44.88;21.42;;;11.40;99.90;;;;;;6310976;22;20451;-89
2022/11/16 09:04:23;;;;;;;43.53;20.85;;;10.50;99.90;;;;;;6308772;22;20518;-88
2022/11/16 09:07:10;;;;;;;46.28;20.77;;;10.50;99.90;;;;;;6308690;22;20022;-89
2022/11/16 09:09:48;;;;;;;41.33;20.52;;;10.70;99.90;;;;;;6280780;22;20100;-88
2022/11/16 09:12:20;;;;;;;42.60;21.40;;;9.50;99.90;;;;;;6306689;22;20022;-88
2022/11/16 09:14:48;;;;;;;47.92;21.88;;;10.50;99.90;;;;;;6280924;22;20019;-89
2022/11/16 09:17:14;;;;;;;39.10;19.98;;;10.10;99.90;;;;;;6307900;22;20011;-88
2022/11/16 09:19:40;;;;;;;38.08;20.48;;;12.00;99.90;;;;;;6280570;22;20104;-89
2022/11/16 09:22:08;;;;;;;39.83;20.42;;;11.80;99.90;;;;;;6288094;22;20003;-89
2022/11/16 09:24:34;;;;;;;45.50;21.80;;;10.80;99.90;;;;;;6307119;22;20015;-89
2022/11/16 09:27:06;;;;;;;35.63;20.08;;;10.90;99.90;;;;;;6298191;22;20042;-88
2022/11/16 09:29:37;;;;;;;37.22;19.95;;;10.90;99.90;;;;;;6284901;22;20092;-88
2022/11/16 09:32:06;;;;;;;42.03;20.55;;;11.10;99.90;;;;;;6280063;22;20019;-88
2022/11/16 09:34:37;;;;;;;35.50;19.67;;;11.60;99.90;;;;;;6307645;22;20070;-88
2022/11/16 09:37:09;;;;;;;35.78;20.15;;;12.00;99.90;;;;;;6308042;22;20036;-88
2022/11/16 09:39:38;;;;;;;34.60;18.77;;;10.70;99.90;;;;;;6279701;22;20072;-88
2022/11/16 09:42:43;;;;;;;32.17;17.58;;;10.10;99.90;;;;;;6308102;22;20461;-89
2022/11/16 09:45:16;;;;;;;;;;;11.00;99.90;;;;;;6280740;22;20023;-88
2022/11/16 09:48:15;;;;;;;30.10;17.25;;;11.00;99.90;;;;;;6279999;22;19915;-88
2022/11/16 09:51:11;;;;;;;30.15;16.83;;;11.80;99.90;;;;;;6308133;22;20023;-88
2022/11/16 09:53:47;;;;;;;27.17;16.02;;;11.20;99.90;;;;;;6306851;22;20077;-88
2022/11/16 09:56:42;;;;;;;25.45;14.98;;;11.10;99.90;;;;;;6280107;22;20459;-89
2022/11/16 09:59:20;;;;;;;26.33;14.35;;;11.10;99.90;;;;;;6308247;22;20096;-88
2022/11/16 10:02:19;;;;;;;21.42;13.02;;;11.20;99.90;;;;;;6307548;22;20515;-88
2022/11/16 10:04:52;;;;;;;23.48;14.38;;;12.40;99.90;;;;;;6280373;22;20019;-88
2022/11/16 10:07:47;;;;;;;;;;;11.30;99.90;;;;;;6307758;22;20022;-88
2022/11/16 10:10:48;;;;;;;25.95;14.63;;;11.30;99.90;;;;;;6228237;22;20327;-88
2022/11/16 10:13:48;;;;;;;23.02;12.30;;;11.40;99.90;;;;;;6279520;22;20072;-88
2022/11/16 10:16:56;;;;;;;20.77;12.88;;;11.40;99.90;;;;;;6279227;22;20381;-88
2022/11/16 10:20:00;;;;;;;20.85;11.02;;;11.60;99.90;;;;;;6307744;22;20015;-88
2022/11/16 10:23:15;;;;;;;24.73;12.13;;;11.70;99.90;;;;;;6306077;22;20350;-88
2022/11/16 10:26:32;;;;;;;19.88;10.80;;;11.80;99.90;;;;;;6281392;22;20015;-88
2022/11/16 10:29:27;;;;;;;21.10;10.90;;;11.70;99.90;;;;;;6305885;22;20018;-88
2022/11/16 10:32:07;;;;;;;21.08;13.07;;;11.80;99.90;;;;;;6309772;22;20012;-88
2022/11/16 10:37:12;;;;;;;15.43;8.15;;;11.80;99.90;;;;;;6308267;22;20089;-88
2022/11/16 10:42:38;;;;;;;14.55;8.15;;;11.90;99.90;;;;;;6311096;22;20015;-88
2022/11/16 10:45:04;;;;;;;16.50;8.65;;;11.80;99.90;;;;;;6307643;22;20023;-88
2022/11/16 10:47:45;;;;;;;18.90;8.82;;;11.80;99.90;;;;;;6307300;22;20018;-89
2022/11/16 10:53:30;;;;;;;16.58;7.93;;;11.70;99.90;;;;;;6305603;22;20080;-88
2022/11/16 10:56:45;;;;;;;17.67;8.00;;;11.90;99.90;;;;;;6279718;22;20023;-88
2022/11/16 10:59:37;;;;;;;21.67;7.63;;;11.90;99.90;;;;;;6279213;22;20744;-88
2022/11/16 11:02:21;;;;;;;14.40;7.40;;;11.90;99.90;;;;;;6279578;22;20026;-88
2022/11/16 11:05:06;;;;;;;15.40;7.53;;;12.00;99.90;;;;;;6306629;22;20095;-88
2022/11/16 11:07:38;;;;;;;15.35;7.57;;;11.90;99.90;;;;;;6279806;22;20503;-88
2022/11/16 11:10:27;;;;;;;14.65;6.30;;;12.40;99.90;;;;;;6307368;22;20022;-88
2022/11/16 11:13:11;;;;;;;15.35;5.55;;;11.90;99.90;;;;;;6308340;22;20011;-89
2022/11/16 11:15:46;;;;;;;12.93;4.78;;;12.00;99.90;;;;;;6307741;22;20027;-89
2022/11/16 11:18:33;;;;;;;11.63;5.30;;;11.90;99.90;;;;;;6306633;22;20007;-88
2022/11/16 11:21:23;;;;;;;12.57;4.85;;;12.00;99.90;;;;;;6278763;22;20406;-88
2022/11/16 11:24:03;;;;;;;13.45;5.22;;;12.10;99.90;;;;;;6279270;22;20011;-88
2022/11/16 11:26:55;;;;;;;13.85;4.70;;;12.00;99.90;;;;;;6281716;22;20015;-90
2022/11/16 11:29:41;;;;;;;15.43;6.75;;;12.00;99.90;;;;;;6307303;22;20118;-88
2022/11/16 11:32:18;;;;;;;12.75;4.60;;;13.10;99.90;;;;;;6306356;22;20094;-90
2022/11/16 11:34:52;;;;;;;20.05;9.85;;;11.90;99.90;;;;;;6307144;22;20042;-90
2022/11/16 11:37:49;;;;;;;13.80;4.38;;;13.80;99.90;;;;;;6306775;22;20086;-89
2022/11/16 11:40:28;;;;;;;12.52;4.00;;;12.50;99.90;;;;;;6278675;22;20069;-90
2022/11/16 11:45:56;;;;;;;13.32;4.85;;;12.70;99.90;;;;;;6304583;22;20045;-90
2022/11/16 11:52:36;;;;;;;11.27;4.10;;;13.60;99.90;;;;;;6190158;23;20082;-90
2022/11/16 11:55:14;;;;;;;10.90;3.90;;;13.30;99.90;;;;;;6190138;23;20021;-93
2022/11/16 11:57:57;;;;;;;12.27;4.47;;;13.80;99.90;;;;;;6189089;23;20020;-91
2022/11/16 12:01:29;;;;;;;10.93;4.15;;;12.40;99.90;;;;;;6217062;23;20055;-91
2022/11/16 12:04:03;;;;;;;11.65;3.95;;;12.60;99.90;;;;;;6152126;23;20488;-91
2022/11/16 12:07:06;;;;;;;11.57;3.85;;;14.50;99.90;;;;;;6217427;23;20013;-91
2022/11/16 12:10:27;;;;;;;10.02;3.70;;;12.90;99.90;;;;;;6215419;23;20024;-91
2022/11/16 12:13:28;;;;;;;11.07;4.03;;;13.20;99.90;;;;;;6173958;23;20017;-91
2022/11/16 12:16:34;;;;;;;12.43;3.50;;;13.20;99.90;;;;;;6219385;23;20070;-91
2022/11/16 12:19:30;;;;;;;13.45;3.72;;;13.40;99.90;;;;;;6222140;23;20016;-91
2022/11/16 12:22:17;;;;;;;9.50;2.95;;;13.30;99.90;;;;;;6266117;22;20037;-92
2022/11/16 12:25:21;;;;;;;10.65;3.20;;;13.40;99.90;;;;;;6300765;22;20007;-92
2022/11/16 12:28:14;;;;;;;11.57;3.45;;;13.50;99.90;;;;;;6310743;22;20455;-92
2022/11/16 12:31:15;;;;;;;10.98;4.00;;;14.10;99.90;;;;;;6310597;22;20130;-92
2022/11/16 12:34:16;;;;;;;11.45;3.65;;;13.40;99.90;;;;;;6287178;22;20019;-92
2022/11/16 12:37:17;;;;;;;13.65;3.88;;;13.60;99.90;;;;;;6282989;22;20098;-92
2022/11/16 12:40:16;;;;;;;13.48;3.45;;;13.60;99.90;;;;;;6311895;22;20470;-91
2022/11/16 12:43:17;;;;;;;11.85;3.50;;;13.90;99.90;;;;;;6286559;22;20360;-92
2022/11/16 12:46:29;;;;;;;16.77;4.13;;;13.30;99.90;;;;;;6309524;22;20447;-92
2022/11/16 12:49:42;;;;;;;9.98;3.25;;;13.00;99.90;;;;;;6281099;22;20768;-92
2022/11/16 12:52:51;;;;;;;12.60;3.20;;;12.80;99.90;;;;;;6281097;22;20049;-91
2022/11/16 12:55:38;;;;;;;11.35;2.97;;;13.10;99.90;;;;;;6281462;22;20061;-92
2022/11/16 12:58:56;;;;;;;12.50;3.30;;;14.50;99.90;;;;;;6281320;22;20061;-92
2022/11/16 13:01:33;;;;;;;11.43;2.70;;;13.30;99.90;;;;;;6295894;22;20015;-92
2022/11/16 13:04:25;;;;;;;12.43;2.67;;;13.20;99.90;;;;;;6306339;22;20011;-91
2022/11/16 13:06:57;;;;;;;12.35;2.53;;;13.10;99.90;;;;;;6307282;22;20038;-92
2022/11/16 13:09:28;;;;;;;11.93;2.55;;;13.80;99.90;;;;;;6278391;22;20027;-92
2022/11/16 13:11:57;;;;;;;12.80;2.90;;;13.70;99.90;;;;;;6280024;22;20022;-91
2022/11/16 13:14:53;;;;;;;11.10;2.63;;;14.50;99.90;;;;;;6304381;22;20098;-87
2022/11/16 13:17:26;;;;;;;13.38;2.70;;;12.80;99.90;;;;;;6245407;22;20454;-90
2022/11/16 13:20:35;;;;;;;11.25;3.00;;;13.80;99.90;;;;;;6277167;22;20374;-90
2022/11/16 13:23:41;;;;;;;11.75;2.65;;;12.80;99.90;;;;;;6249690;22;20367;-90
2022/11/16 13:26:54;;;;;;;10.10;2.58;;;12.80;99.90;;;;;;6248668;22;20023;-88
2022/11/16 13:29:41;;;;;;;12.60;3.28;;;12.80;99.90;;;;;;6276930;22;20050;-89
2022/11/16 13:32:20;;;;;;;10.13;2.78;;;12.70;99.90;;;;;;6276230;22;20344;-89
2022/11/16 13:34:58;;;;;;;14.13;2.80;;;12.70;99.90;;;;;;6281003;22;20017;-89
2022/11/16 13:37:47;;;;;;;12.23;2.65;;;13.70;99.90;;;;;;6318320;22;20378;-88
2022/11/16 13:40:35;;;;;;;14.30;3.65;;;11.50;99.90;;;;;;6281901;22;20016;-87
2022/11/16 13:43:02;;;;;;;12.13;2.90;;;12.10;99.90;;;;;;6309255;22;20037;-89
2022/11/16 13:45:40;;;;;;;11.25;2.90;;;13.70;99.90;;;;;;6279952;22;20422;-89
2022/11/16 13:48:23;;;;;;;9.90;2.50;;;12.50;99.90;;;;;;6285955;22;20015;-90
2022/11/16 13:50:53;;;;;;;13.85;2.92;;;12.60;99.90;;;;;;6309101;22;20012;-91
2022/11/16 13:54:10;;;;;;;12.95;2.75;;;13.00;99.90;;;;;;6279894;22;20015;-91
2022/11/16 13:57:18;;;;;;;11.15;2.75;;;12.20;99.90;;;;;;6220727;22;20015;-90
2022/11/16 13:59:55;;;;;;;15.00;2.83;;;12.10;99.90;;;;;;6280042;22;20023;-89
2022/11/16 14:02:32;;;;;;;13.57;3.10;;;12.40;99.90;;;;;;6307796;22;20014;-90
2022/11/16 14:05:02;;;;;;;13.73;2.60;;;13.50;99.90;;;;;;6308086;22;20019;-90
2022/11/16 14:07:46;;;;;;;10.65;2.65;;;13.20;99.90;;;;;;6306869;22;20008;-89
2022/11/16 14:10:43;;;;;;;12.05;2.70;;;12.30;99.90;;;;;;6307966;22;20079;-90
2022/11/16 14:13:49;;;;;;;11.65;2.50;;;12.20;99.90;;;;;;6262527;22;20015;-90
2022/11/16 14:16:27;;;;;;;16.85;2.88;;;12.20;99.90;;;;;;6308384;22;20428;-90
2022/11/16 14:19:41;;;;;;;12.73;2.60;;;13.50;99.90;;;;;;6307833;22;20026;-89
2022/11/16 14:22:38;;;;;;;10.88;3.10;;;12.00;99.90;;;;;;6278640;22;20094;-89
2022/11/16 14:25:40;;;;;;;12.35;2.63;;;12.60;99.90;;;;;;6279326;22;20088;-91
2022/11/16 14:28:34;;;;;;;13.02;2.95;;;11.90;99.90;;;;;;6281091;22;20019;-88
2022/11/16 14:31:19;;;;;;;10.23;2.17;;;11.90;99.90;;;;;;6281986;22;20016;-87
2022/11/16 14:33:49;;;;;;;12.30;2.72;;;11.70;99.90;;;;;;6311956;22;20065;-90
2022/11/16 14:36:52;;;;;;;16.55;2.78;;;12.10;99.90;;;;;;6307403;22;20019;-90
2022/11/16 14:39:54;;;;;;;11.68;3.00;;;11.70;99.90;;;;;;6279932;22;20366;-90
2022/11/16 14:43:00;;;;;;;11.10;2.45;;;10.80;99.90;;;;;;6306987;22;20007;-89
2022/11/16 14:48:29;;;;;;;12.70;2.58;;;11.50;99.90;;;;;;6311729;22;20015;-89
2022/11/16 14:51:04;;;;;;;11.02;2.60;;;11.20;99.90;;;;;;6281131;22;20015;-90
2022/11/16 14:56:07;;;;;;;10.75;3.10;;;11.30;99.90;;;;;;6303532;22;20027;-89
2022/11/16 14:58:49;;;;;;;17.90;3.90;;;11.20;99.90;;;;;;6280541;22;20410;-91
2022/11/16 15:01:38;;;;;;;13.98;2.80;;;12.20;99.90;;;;;;6306036;22;20030;-89
2022/11/16 15:04:09;;;;;;;14.38;3.10;;;10.30;99.90;;;;;;6280047;22;20025;-89
2022/11/16 15:06:47;;;;;;;11.98;2.95;;;10.30;99.90;;;;;;6279634;22;20007;-89
2022/11/16 15:09:45;;;;;;;12.35;3.17;;;10.90;99.90;;;;;;6304961;22;20023;-88
2022/11/16 15:12:40;;;;;;;15.85;3.40;;;10.40;99.90;;;;;;6306660;22;20439;-89
2022/11/16 15:15:26;;;;;;;17.38;3.20;;;10.60;99.90;;;;;;6317372;22;20030;-89
2022/11/16 15:18:06;;;;;;;10.65;2.80;;;10.50;99.90;;;;;;6302762;22;20019;-89
2022/11/16 15:20:37;;;;;;;10.45;2.83;;;11.30;99.90;;;;;;6314479;22;20007;-88
2022/11/16 15:23:19;;;;;;;13.18;3.08;;;11.50;99.90;;;;;;6282913;22;20487;-88
2022/11/16 15:26:09;;;;;;;15.68;3.38;;;11.00;99.90;;;;;;6318912;22;20012;-89
2022/11/16 15:28:39;;;;;;;11.95;2.78;;;10.10;99.90;;;;;;6281425;22;20530;-89
2022/11/16 15:31:22;;;;;;;11.00;2.88;;;10.80;99.90;;;;;;6280724;22;20381;-89
2022/11/16 15:34:14;;;;;;;11.65;3.03;;;9.70;99.90;;;;;;6275717;22;20026;-88
2022/11/16 15:36:43;;;;;;;11.75;2.85;;;9.80;99.90;;;;;;6276421;22;20016;-88
2022/11/16 15:39:25;;;;;;;10.95;2.88;;;9.60;99.90;;;;;;6276486;22;20462;-88
2022/11/16 15:41:58;;;;;;;11.82;3.40;;;8.90;99.90;;;;;;6278148;22;20134;-88
2022/11/16 15:44:39;;;;;;;13.32;3.10;;;8.60;99.90;;;;;;6275858;22;20019;-88
2022/11/16 15:47:05;;;;;;;11.13;2.67;;;9.50;99.90;;;;;;6276814;22;20087;-89
2022/11/16 15:49:48;;;;;;;15.85;3.13;;;9.40;99.90;;;;;;6272256;22;20046;-90
2022/11/16 15:52:49;;;;;;;14.93;3.30;;;9.40;99.90;;;;;;6272338;22;20090;-90
2022/11/16 15:55:43;;;;;;;11.65;3.10;;;9.40;99.90;;;;;;6222454;22;20016;-88
2022/11/16 15:58:26;;;;;;;12.55;3.10;;;9.20;99.90;;;;;;6273375;22;20027;-90
2022/11/16 16:00:58;;;;;;;13.95;3.53;;;8.80;99.90;;;;;;6277400;22;20066;-88
2022/11/16 16:03:34;;;;;;;11.40;3.38;;;8.90;99.90;;;;;;6277523;22;20020;-89
2022/11/16 16:06:01;;;;;;;13.97;3.20;;;9.30;99.90;;;;;;6281308;22;20016;-89
2022/11/16 16:08:40;;;;;;;14.47;3.80;;;8.70;99.90;;;;;;6275767;22;20331;-88
2022/11/16 16:11:32;;;;;;;12.98;3.75;;;10.30;99.90;;;;;;6278419;22;20020;-89
2022/11/16 16:14:02;;;;;;;11.65;4.10;;;8.70;99.90;;;;;;6277999;22;20047;-89
2022/11/16 16:16:51;;;;;;;11.73;4.03;;;10.30;99.90;;;;;;6281000;22;20020;-89
2022/11/16 16:19:40;;;;;;;15.15;4.22;;;8.90;99.90;;;;;;6277534;22;20008;-88
2022/11/16 16:22:29;;;;;;;13.43;4.30;;;8.50;99.90;;;;;;6280795;22;20088;-89
2022/11/16 16:28:30;;;;;;;13.67;5.30;;;8.70;99.90;;;;;;6265261;22;20062;-91
2022/11/16 16:31:15;;;;;;;14.07;5.00;;;8.90;99.90;;;;;;6278652;22;20022;-92
2022/11/16 16:33:58;;;;;;;17.00;6.27;;;9.00;99.90;;;;;;6163136;22;20017;-90
2022/11/16 16:36:39;;;;;;;19.27;7.87;;;9.10;99.90;;;;;;6278030;22;20023;-91
2022/11/16 16:39:06;;;;;;;19.95;7.68;;;8.00;99.90;;;;;;6278148;22;20250;-90
2022/11/16 16:41:38;;;;;;;14.43;6.53;;;8.50;99.90;;;;;;6276911;22;20012;-92
2022/11/16 16:44:18;;;;;;;15.43;6.45;;;8.60;99.90;;;;;;6276488;22;20103;-90
2022/11/16 16:46:44;;;;;;;14.52;7.50;;;7.50;99.90;;;;;;6279279;22;20020;-89
2022/11/16 16:49:18;;;;;;;13.03;6.77;;;8.40;99.90;;;;;;6276768;22;20428;-88
2022/11/16 16:51:44;;;;;;;15.87;7.17;;;7.40;99.90;;;;;;6280945;22;20451;-90
2022/11/16 16:54:13;;;;;;;16.53;7.37;;;9.00;99.90;;;;;;6277592;22;20020;-90
2022/11/16 16:56:51;;;;;;;15.07;6.63;;;7.70;99.90;;;;;;6274996;22;20047;-88
2022/11/16 16:59:43;;;;;;;16.40;7.00;;;7.60;99.90;;;;;;6282404;22;20011;-89
2022/11/16 17:02:11;;;;;;;15.63;6.60;;;7.20;99.90;;;;;;6276771;22;20011;-91
2022/11/16 17:04:54;;;;;;;17.50;7.10;;;8.50;99.90;;;;;;6273085;22;20016;-90
2022/11/16 17:07:20;;;;;;;18.63;7.15;;;9.10;99.90;;;;;;6273095;22;20438;-90
2022/11/16 17:09:58;;;;;;;17.60;7.37;;;7.40;99.90;;;;;;6272364;22;20012;-90
2022/11/16 17:12:24;;;;;;;14.67;6.53;;;7.70;99.90;;;;;;6278071;22;20490;-90
2022/11/16 17:15:08;;;;;;;18.43;7.13;;;8.40;99.90;;;;;;6284558;22;20022;-89
2022/11/16 17:17:36;;;;;;;;;;;8.00;99.90;;;;;;6275641;22;20023;-91
2022/11/16 17:20:05;;;;;;;15.20;7.10;;;7.70;99.90;;;;;;6291944;22;19915;-91
2022/11/16 17:22:32;;;;;;;15.60;7.45;;;7.80;99.90;;;;;;6280753;22;20078;-91
2022/11/16 17:24:57;;;;;;;15.40;7.93;;;8.30;99.90;;;;;;6275770;22;20437;-90
2022/11/16 17:27:38;;;;;;;16.33;7.47;;;7.20;99.90;;;;;;6275684;22;20525;-89
2022/11/16 17:30:19;;;;;;;14.40;6.47;;;7.60;99.90;;;;;;6277766;22;20070;-90
2022/11/16 17:32:45;;;;;;;18.53;6.83;;;7.00;99.90;;;;;;6278280;22;20024;-91
2022/11/16 17:35:29;;;;;;;17.45;8.05;;;8.20;99.90;;;;;;6277908;22;20027;-91
2022/11/16 17:37:54;;;;;;;14.67;8.17;;;7.90;99.90;;;;;;6274616;22;20012;-90
2022/11/16 17:40:29;;;;;;;15.03;7.63;;;7.20;99.90;;;;;;6277065;22;20375;-89
2022/11/16 17:42:58;;;;;;;18.70;8.37;;;7.80;99.90;;;;;;6278424;22;20333;-90
2022/11/16 17:45:36;;;;;;;21.03;12.67;;;7.10;99.90;;;;;;6276213;22;20011;-89
2022/11/16 17:48:07;;;;;;;23.83;13.33;;;8.90;99.90;;;;;;6280396;22;20028;-89
2022/11/16 17:50:48;;;;;;;22.17;10.10;;;7.90;99.90;;;;;;6283969;22;20015;-90
2022/11/16 17:53:33;;;;;;;22.23;10.60;;;8.80;99.90;;;;;;6274794;22;20011;-90
2022/11/16 17:56:03;;;;;;;19.33;8.97;;;7.70;99.90;;;;;;6273193;22;20024;-90
2022/11/16 17:58:54;;;;;;;20.93;9.20;;;7.40;99.90;;;;;;6297824;22;20074;-91
2022/11/16 18:01:30;;;;;;;20.37;10.73;;;7.30;99.90;;;;;;6307003;22;20461;-90
2022/11/16 18:04:42;;;;;;;24.73;11.30;;;7.60;99.90;;;;;;6279650;22;20063;-89
2022/11/16 18:07:28;;;;;;;28.90;13.33;;;6.90;99.90;;;;;;6293376;22;20030;-90
2022/11/16 18:10:02;;;;;;;29.40;13.57;;;8.00;99.90;;;;;;6280966;22;20012;-89
2022/11/16 18:12:40;;;;;;;24.20;12.77;;;7.60;99.90;;;;;;6287231;22;20480;-89
2022/11/16 18:15:27;;;;;;;31.13;14.73;;;7.20;99.90;;;;;;6327847;22;20041;-90
2022/11/16 18:18:04;;;;;;;35.00;16.90;;;7.20;99.90;;;;;;6306104;22;20089;-90
2022/11/16 18:20:49;;;;;;;39.27;18.60;;;8.00;99.90;;;;;;6307261;22;20064;-90
2022/11/16 18:23:33;;;;;;;42.27;20.00;;;7.90;99.90;;;;;;6281321;22;20007;-90
2022/11/16 18:26:17;;;;;;;40.80;21.20;;;8.80;99.90;;;;;;6297350;22;20015;-90
2022/11/16 18:28:52;;;;;;;46.80;22.95;;;7.90;99.90;;;;;;6283328;22;20020;-90
2022/11/16 18:31:34;;;;;;;49.20;24.55;;;8.30;99.90;;;;;;6307892;22;20019;-89
2022/11/16 18:34:00;;;;;;;49.70;24.43;;;7.20;99.90;;;;;;6286676;22;20032;-90
2022/11/16 18:36:29;;;;;;;47.30;24.52;;;8.30;99.90;;;;;;6282731;22;20015;-91
2022/11/16 18:39:01;;;;;;;51.40;25.80;;;9.60;99.90;;;;;;6280188;22;20019;-89